Time;durP1;ratioP1;P1;durP2;ratioP2;P2;SDS_P1;SDS_P2;PMS_P1;PMS_P2;Temp;Humidity;BMP_temperature;BMP_pressure;BME280_temperature;BME280_humidity;BME280_pressure;Samples;Min_cycle;Max_cycle;Signal;HPM_P1;HPM_P2
2021/12/25 00:01:08;;;;;;;12.20;7.07;;;;;;;14.71;45.44;97981.84;4472867;32;35197;-86
2021/12/25 00:03:37;;;;;;;12.90;7.97;;;;;;;14.84;45.02;97987.63;4493774;31;33916;-86
2021/12/25 00:06:04;;;;;;;10.98;7.25;;;;;;;15.05;44.40;97983.66;4468569;32;33490;-86
2021/12/25 00:08:32;;;;;;;12.60;6.85;;;;;;;15.12;44.03;97992.22;4474384;32;34070;-84
2021/12/25 00:11:01;;;;;;;10.25;6.53;;;;;;;15.26;43.67;97983.13;4463937;32;33994;-85
2021/12/25 00:13:29;;;;;;;11.43;6.90;;;;;;;15.49;42.97;97981.69;4466242;32;34574;-86
2021/12/25 00:15:56;;;;;;;13.38;8.55;;;;;;;15.49;42.51;97990.41;4457150;32;33381;-86
2021/12/25 00:18:24;;;;;;;12.68;8.25;;;;;;;15.24;43.00;97991.91;4481307;32;35054;-83
2021/12/25 00:20:51;;;;;;;14.65;8.85;;;;;;;15.28;42.99;98003.97;4472773;32;34127;-84
2021/12/25 00:23:22;;;;;;;12.50;7.75;;;;;;;15.33;42.76;98002.97;4469363;32;34885;-83
2021/12/25 00:25:56;;;;;;;14.73;8.38;;;;;;;15.30;42.72;98002.19;4481455;32;34304;-84
2021/12/25 00:31:23;;;;;;;12.45;7.37;;;;;;;15.11;43.08;97995.69;4482466;32;34088;-84
2021/12/25 00:33:59;;;;;;;12.15;7.87;;;;;;;15.21;42.97;97997.19;4481829;32;34034;-83
2021/12/25 00:36:27;;;;;;;13.38;8.00;;;;;;;15.36;42.49;97991.59;4480917;32;34126;-84
2021/12/25 00:38:55;;;;;;;12.90;7.85;;;;;;;15.34;42.44;97998.59;4481246;32;33635;-85
2021/12/25 00:41:24;;;;;;;14.43;8.77;;;;;;;14.65;44.28;98000.22;4481080;32;34084;-84
2021/12/25 00:43:52;;;;;;;17.58;9.50;;;;;;;14.90;43.83;98008.38;4482206;32;34543;-84
2021/12/25 00:46:20;;;;;;;14.52;8.85;;;;;;;14.68;44.22;98013.22;4481342;32;33692;-85
2021/12/25 00:48:48;;;;;;;12.65;7.72;;;;;;;14.85;44.05;98015.47;4482465;32;33668;-84
2021/12/25 00:51:16;;;;;;;12.88;7.70;;;;;;;14.63;44.37;98006.41;4481223;32;35136;-83
2021/12/25 00:53:45;;;;;;;14.48;8.15;;;;;;;14.58;44.83;98014.28;4481318;32;34406;-84
2021/12/25 00:56:12;;;;;;;16.05;8.35;;;;;;;14.75;44.14;98008.72;4479659;32;33397;-84
2021/12/25 00:58:41;;;;;;;11.43;7.75;;;;;;;15.06;43.46;98014.94;4474242;32;34019;-83
2021/12/25 01:01:08;;;;;;;13.55;8.23;;;;;;;14.86;43.94;98014.56;4482450;32;33348;-84
2021/12/25 01:03:36;;;;;;;13.68;9.00;;;;;;;15.14;43.30;98013.91;4482369;32;33590;-85
2021/12/25 01:06:04;;;;;;;13.02;7.68;;;;;;;14.64;44.47;98013.31;4481743;32;33481;-84
2021/12/25 01:08:32;;;;;;;11.23;7.70;;;;;;;14.81;44.27;98016.38;4481228;32;34756;-84
2021/12/25 01:10:59;;;;;;;11.75;7.72;;;;;;;14.56;45.01;98023.91;4467482;32;33389;-84
2021/12/25 01:13:32;;;;;;;12.15;8.00;;;;;;;14.39;45.54;98025.97;4481159;32;33479;-86
2021/12/25 01:30:02;;;;;;;11.77;7.35;;;;;;;14.74;44.87;98033.97;4435060;32;33860;-86
2021/12/25 01:33:06;;;;;;;11.38;7.45;;;;;;;14.84;44.79;98035.44;4464379;32;34298;-84
2021/12/25 01:48:52;;;;;;;11.70;7.40;;;;;;;14.98;44.12;98050.81;4476702;32;34626;-87
2021/12/25 01:51:20;;;;;;;12.90;8.80;;;;;;;14.94;44.26;98045.69;4482076;32;33939;-88
2021/12/25 01:53:48;;;;;;;15.93;9.57;;;;;;;14.88;44.24;98051.03;4481842;32;34422;-87
2021/12/25 01:56:16;;;;;;;18.62;10.55;;;;;;;14.75;44.19;98040.88;4482170;31;34565;-87
2021/12/25 01:58:44;;;;;;;16.73;10.93;;;;;;;14.61;44.49;98045.53;4482802;32;34198;-85
2021/12/25 02:01:11;;;;;;;13.90;9.15;;;;;;;14.46;44.50;98054.50;4483647;32;33106;-87
2021/12/25 02:03:41;;;;;;;17.15;11.10;;;;;;;14.60;44.41;98056.87;4482053;32;34229;-83
2021/12/25 02:06:11;;;;;;;15.35;9.60;;;;;;;14.16;45.46;98045.53;4475260;32;34662;-85
2021/12/25 02:08:41;;;;;;;14.95;10.25;;;;;;;14.63;44.02;98043.75;4482470;32;31880;-87
2021/12/25 02:11:10;;;;;;;12.55;8.05;;;;;;;15.02;43.43;98038.53;4482258;32;34056;-85
2021/12/25 02:13:41;;;;;;;15.10;9.38;;;;;;;14.93;43.52;98033.56;4484072;32;34937;-84
2021/12/25 02:16:14;;;;;;;13.32;6.82;;;;;;;15.27;42.74;98025.78;4482364;32;33492;-86
2021/12/25 02:19:03;;;;;;;12.60;7.60;;;;;;;15.15;43.15;98044.31;4483581;32;33440;-87
2021/12/25 02:21:37;;;;;;;11.85;7.68;;;;;;;15.18;43.29;98041.66;4466836;32;34019;-87
2021/12/25 02:24:07;;;;;;;14.13;7.85;;;;;;;15.11;43.31;98032.25;4469267;32;32816;-86
2021/12/25 02:26:36;;;;;;;13.68;7.80;;;;;;;14.66;44.42;98042.81;4483591;32;34531;-87
2021/12/25 02:29:04;;;;;;;14.05;7.80;;;;;;;14.97;43.70;98048.25;4469532;32;34778;-86
2021/12/25 02:31:32;;;;;;;14.75;8.90;;;;;;;14.90;43.97;98038.84;4483629;32;34013;-87
2021/12/25 02:33:59;;;;;;;18.67;9.55;;;;;;;14.72;44.38;98038.34;4483158;32;34170;-86
2021/12/25 02:36:27;;;;;;;14.10;8.65;;;;;;;15.12;43.36;98032.22;4482950;32;34030;-85
2021/12/25 02:38:55;;;;;;;16.80;9.35;;;;;;;15.24;42.91;98025.84;4482063;32;33508;-84
2021/12/25 02:41:23;;;;;;;14.25;9.40;;;;;;;15.19;43.12;98023.34;4482355;32;33773;-86
2021/12/25 02:43:51;;;;;;;14.95;8.60;;;;;;;15.00;43.44;98025.53;4483572;32;34810;-87
2021/12/25 02:46:22;;;;;;;13.85;8.40;;;;;;;15.25;43.10;98030.16;4482450;32;33673;-87
2021/12/25 02:48:49;;;;;;;13.80;8.77;;;;;;;14.98;43.24;98035.16;4483435;32;34257;-87
2021/12/25 02:51:17;;;;;;;11.07;7.68;;;;;;;15.02;43.21;98028.97;4482838;32;34032;-87
2021/12/25 02:53:44;;;;;;;12.55;7.32;;;;;;;15.18;42.54;98023.38;4482421;32;33922;-87
2021/12/25 02:56:12;;;;;;;11.65;6.57;;;;;;;15.11;42.51;98025.25;4483671;32;33705;-87
2021/12/25 02:58:40;;;;;;;9.07;6.12;;;;;;;15.37;42.09;98024.63;4483430;32;33126;-85
2021/12/25 03:01:11;;;;;;;10.20;6.15;;;;;;;14.73;42.40;98027.00;4482456;32;33814;-87
2021/12/25 03:03:39;;;;;;;8.95;5.00;;;;;;;14.50;43.17;98024.88;4483426;32;34214;-87
2021/12/25 03:06:08;;;;;;;9.75;5.50;;;;;;;14.86;42.32;98030.22;4469147;32;34195;-87
2021/12/25 03:08:37;;;;;;;9.05;5.78;;;;;;;13.96;44.12;98029.44;4483471;32;34881;-86
2021/12/25 03:11:06;;;;;;;7.65;4.85;;;;;;;13.88;44.24;98029.59;4482336;32;33914;-86
2021/12/25 03:13:45;;;;;;;6.93;4.32;;;;;;;14.28;43.22;98028.81;4482825;32;35718;-88
2021/12/25 03:16:14;;;;;;;8.48;3.87;;;;;;;14.72;41.72;98025.28;4483450;32;34582;-87
2021/12/25 03:18:47;;;;;;;8.10;4.68;;;;;;;14.49;41.98;98019.69;4481774;32;34137;-87
2021/12/25 03:21:19;;;;;;;7.15;4.43;;;;;;;14.86;40.96;98026.75;4483007;32;34032;-84
2021/12/25 03:23:48;;;;;;;12.48;7.45;;;;;;;14.77;41.03;98027.78;4481847;32;34598;-86
2021/12/25 03:26:16;;;;;;;12.15;7.05;;;;;;;14.21;42.08;98035.91;4468709;32;34593;-84
2021/12/25 03:28:45;;;;;;;11.63;7.37;;;;;;;14.22;42.32;98034.16;4482162;32;34024;-86
2021/12/25 03:31:19;;;;;;;12.98;7.32;;;;;;;14.48;41.74;98031.88;4483498;32;33731;-87
2021/12/25 03:33:53;;;;;;;12.18;7.32;;;;;;;14.48;41.24;98034.47;4482402;32;34917;-87
2021/12/25 03:36:21;;;;;;;11.93;7.55;;;;;;;14.93;40.40;98029.19;4481539;32;33642;-87
2021/12/25 03:38:49;;;;;;;11.57;6.90;;;;;;;14.26;41.80;98031.44;4483265;32;33592;-87
2021/12/25 03:41:18;;;;;;;11.23;7.12;;;;;;;14.53;41.33;98037.03;4481983;32;34517;-88
2021/12/25 03:43:46;;;;;;;9.05;5.53;;;;;;;14.44;41.39;98045.00;4483032;32;33164;-85
2021/12/25 03:46:14;;;;;;;8.60;5.20;;;;;;;14.30;41.82;98046.12;4482827;32;34017;-86
2021/12/25 03:59:40;;;;;;;7.78;4.57;;;;;;;14.43;42.15;98070.22;4482068;32;33132;-86
2021/12/25 04:02:17;;;;;;;7.00;4.60;;;;;;;14.59;41.88;98071.66;4482645;32;34545;-86
2021/12/25 04:04:48;;;;;;;10.18;5.05;;;;;;;13.98;43.27;98075.44;4482770;32;35078;-87
2021/12/25 04:10:17;;;;;;;7.15;4.25;;;;;;;14.74;41.96;98077.44;4447267;32;32376;-87
2021/12/25 04:12:44;;;;;;;8.27;4.85;;;;;;;15.07;41.33;98083.66;4482892;32;34026;-86
2021/12/25 04:15:12;;;;;;;9.40;4.75;;;;;;;14.82;41.73;98084.22;4482958;32;34571;-87
2021/12/25 04:17:39;;;;;;;7.72;4.70;;;;;;;15.07;41.36;98081.06;4481075;32;34619;-88
2021/12/25 04:20:08;;;;;;;11.02;5.20;;;;;;;14.83;42.00;98082.47;4481742;32;33327;-87
2021/12/25 04:23:02;;;;;;;9.73;5.32;;;;;;;14.60;42.77;98080.34;4481433;32;33630;-86
2021/12/25 04:25:27;;;;;;;7.75;4.97;;;;;;;14.94;42.17;98083.09;4473666;32;33928;-86
2021/12/25 04:27:59;;;;;;;10.63;5.72;;;;;;;14.73;42.71;98079.19;4481289;32;34745;-86
2021/12/25 04:30:40;;;;;;;9.30;5.28;;;;;;;14.64;43.15;98079.38;4482124;32;33675;-86
2021/12/25 05:01:42;;;;;;;8.88;5.40;;;;;;;15.05;42.88;98060.22;4482445;32;33963;-88
2021/12/25 05:04:03;;;;;;;8.35;4.82;;;;;;;15.37;41.97;98052.50;4467397;32;33091;-86
2021/12/25 05:06:31;;;;;;;7.28;4.90;;;;;;;15.21;42.03;98049.41;4466792;32;32573;-87
2021/12/25 05:08:58;;;;;;;12.27;5.40;;;;;;;15.26;41.88;98053.62;4465298;32;34928;-84
2021/12/25 05:11:26;;;;;;;7.32;4.72;;;;;;;14.87;42.05;98052.78;4466816;32;33275;-84
2021/12/25 05:13:53;;;;;;;9.82;5.32;;;;;;;14.95;42.13;98057.84;4466540;32;34386;-87
2021/12/25 05:16:23;;;;;;;8.50;4.72;;;;;;;15.03;41.81;98053.31;4466545;32;34888;-88
2021/12/25 05:18:51;;;;;;;7.35;4.55;;;;;;;15.17;41.05;98053.00;4469736;32;33891;-86
2021/12/25 05:21:19;;;;;;;8.55;4.37;;;;;;;15.29;40.66;98052.69;4482058;32;34807;-86
2021/12/25 05:23:47;;;;;;;8.40;4.70;;;;;;;15.17;40.56;98063.44;4480759;32;34074;-86
2021/12/25 05:26:15;;;;;;;8.35;4.35;;;;;;;15.00;40.83;98063.81;4481100;32;35260;-84
2021/12/25 05:28:46;;;;;;;7.57;4.35;;;;;;;15.26;40.34;98073.66;4480323;32;33330;-87
2021/12/25 05:31:15;;;;;;;7.80;5.30;;;;;;;14.84;40.68;98079.81;4481905;32;34517;-85
2021/12/25 05:33:45;;;;;;;9.00;5.85;;;;;;;14.54;41.48;98073.50;4480482;32;34132;-88
2021/12/25 05:36:13;;;;;;;9.18;5.60;;;;;;;14.61;41.19;98076.84;4480526;32;33710;-86
2021/12/25 05:38:42;;;;;;;11.20;6.22;;;;;;;14.72;40.79;98071.41;4481946;32;33839;-86
2021/12/25 05:41:11;;;;;;;9.93;6.53;;;;;;;14.50;41.33;98071.84;4482037;32;33570;-84
2021/12/25 05:43:39;;;;;;;9.40;6.10;;;;;;;14.74;40.87;98069.62;4480751;32;33318;-86
2021/12/25 05:46:07;;;;;;;10.95;7.50;;;;;;;14.65;40.88;98075.88;4480289;32;34303;-86
2021/12/25 05:48:37;;;;;;;10.20;6.47;;;;;;;14.31;41.33;98071.31;4481546;32;35057;-86
2021/12/25 05:51:06;;;;;;;12.10;6.90;;;;;;;14.50;40.90;98070.97;4481294;32;33921;-86
2021/12/25 05:53:34;;;;;;;12.60;7.07;;;;;;;14.24;41.21;98072.31;4480431;32;32984;-86
2021/12/25 05:56:02;;;;;;;10.05;6.25;;;;;;;14.04;41.74;98072.72;4481617;32;34767;-86
2021/12/25 05:58:30;;;;;;;10.15;6.53;;;;;;;14.35;41.23;98079.94;4481655;32;34077;-86
2021/12/25 06:00:58;;;;;;;11.60;6.80;;;;;;;14.08;41.65;98078.72;4481269;32;34136;-87
2021/12/25 06:03:26;;;;;;;9.30;6.03;;;;;;;13.86;42.17;98076.53;4481492;32;33337;-87
2021/12/25 06:05:53;;;;;;;9.63;6.10;;;;;;;14.02;42.00;98079.72;4479928;32;33678;-87
2021/12/25 06:08:21;;;;;;;11.18;5.62;;;;;;;14.17;41.81;98080.28;4480513;32;33887;-85
2021/12/25 06:10:48;;;;;;;9.95;6.72;;;;;;;14.22;41.35;98081.94;4482540;32;33495;-84
2021/12/25 06:13:19;;;;;;;9.88;5.80;;;;;;;14.18;41.42;98090.69;4482604;32;33552;-86
2021/12/25 06:15:48;;;;;;;8.98;5.90;;;;;;;14.05;41.79;98090.09;4483874;32;34144;-86
2021/12/25 06:18:16;;;;;;;10.35;6.68;;;;;;;14.27;41.58;98100.09;4482895;32;34222;-84
2021/12/25 06:20:43;;;;;;;9.57;5.47;;;;;;;14.29;41.41;98091.34;4483597;31;33776;-86
2021/12/25 06:23:11;;;;;;;8.88;5.55;;;;;;;14.45;41.00;98099.72;4483980;32;34872;-85
2021/12/25 06:25:40;;;;;;;8.70;5.50;;;;;;;14.23;41.24;98103.66;4483655;32;34005;-86
2021/12/25 06:28:10;;;;;;;9.40;5.93;;;;;;;14.34;41.38;98106.91;4481802;32;35138;-87
2021/12/25 06:30:39;;;;;;;8.30;5.22;;;;;;;14.36;41.52;98099.94;4482487;32;33971;-88
2021/12/25 06:33:06;;;;;;;9.43;5.57;;;;;;;14.41;41.27;98112.88;4483658;32;33355;-88
2021/12/25 06:35:36;;;;;;;8.23;5.55;;;;;;;14.45;41.05;98119.75;4483641;32;33671;-88
2021/12/25 06:38:03;;;;;;;8.20;5.32;;;;;;;14.50;41.02;98129.22;4483597;32;33845;-86
2021/12/25 06:40:31;;;;;;;7.87;4.82;;;;;;;14.02;41.83;98126.63;4483174;32;34571;-85
2021/12/25 06:42:59;;;;;;;9.57;5.07;;;;;;;14.44;40.92;98118.87;4483897;32;34514;-86
2021/12/25 06:45:26;;;;;;;8.82;4.85;;;;;;;14.53;40.88;98123.09;4482952;32;33763;-87
2021/12/25 06:47:54;;;;;;;8.20;5.40;;;;;;;14.57;40.69;98133.41;4483713;32;34117;-88
2021/12/25 06:50:23;;;;;;;9.40;5.53;;;;;;;14.39;41.43;98133.75;4482537;32;33691;-86
2021/12/25 06:52:50;;;;;;;7.45;4.80;;;;;;;14.19;42.23;98134.13;4482615;32;34140;-87
2021/12/25 06:55:18;;;;;;;14.48;6.40;;;;;;;13.57;43.92;98136.91;4481682;31;33979;-86
2021/12/25 06:57:53;;;;;;;12.05;5.78;;;;;;;13.53;44.40;98140.47;4483344;32;33865;-86
2021/12/25 07:00:22;;;;;;;19.70;7.15;;;;;;;13.52;44.48;98146.53;4482242;32;33093;-85
2021/12/25 07:02:50;;;;;;;15.70;6.05;;;;;;;13.79;43.98;98144.41;4483323;32;33096;-87
2021/12/25 07:05:23;;;;;;;14.32;6.00;;;;;;;14.15;43.06;98139.44;4482544;32;33975;-86
2021/12/25 07:07:51;;;;;;;14.98;8.25;;;;;;;14.19;43.01;98149.75;4482840;32;35069;-86
2021/12/25 07:10:19;;;;;;;17.58;10.65;;;;;;;13.99;43.51;98152.72;4483518;32;33695;-86
2021/12/25 07:12:49;;;;;;;16.60;9.75;;;;;;;13.92;44.09;98161.53;4482253;32;34136;-86
2021/12/25 07:15:17;;;;;;;18.35;9.48;;;;;;;13.74;44.55;98161.81;4482182;32;34570;-87
2021/12/25 07:17:47;;;;;;;15.75;10.77;;;;;;;14.05;43.71;98152.62;4483533;32;34069;-87
2021/12/25 07:20:15;;;;;;;17.25;11.80;;;;;;;13.74;44.70;98159.22;4483483;32;33836;-88
2021/12/25 07:22:45;;;;;;;22.92;12.05;;;;;;;13.43;45.62;98161.44;4481793;32;33601;-88
2021/12/25 07:25:13;;;;;;;20.65;12.77;;;;;;;13.55;45.44;98156.91;4483564;32;33910;-86
2021/12/25 07:27:44;;;;;;;17.42;11.35;;;;;;;13.72;45.40;98161.00;4482059;32;33984;-85
2021/12/25 07:30:12;;;;;;;16.10;11.00;;;;;;;14.03;44.94;98153.53;4483122;32;34676;-83
2021/12/25 07:32:39;;;;;;;17.25;10.15;;;;;;;13.74;45.93;98156.63;4483207;32;33522;-85
2021/12/25 07:35:07;;;;;;;18.25;11.82;;;;;;;13.97;45.57;98164.91;4481924;32;34135;-87
2021/12/25 07:37:34;;;;;;;17.67;11.15;;;;;;;14.02;45.36;98163.09;4481568;32;34180;-87
2021/12/25 07:40:08;;;;;;;16.98;11.75;;;;;;;14.06;45.23;98156.94;4481058;31;33406;-84
2021/12/25 07:42:36;;;;;;;19.42;11.27;;;;;;;14.26;45.05;98166.16;4480032;32;33021;-88
2021/12/25 07:45:06;;;;;;;16.42;10.82;;;;;;;14.42;44.76;98166.72;4481858;32;34717;-85
2021/12/25 07:47:35;;;;;;;15.98;10.63;;;;;;;14.44;44.69;98160.59;4483126;32;34965;-84
2021/12/25 07:50:03;;;;;;;20.23;10.70;;;;;;;14.63;44.51;98176.81;4468900;32;34200;-88
2021/12/25 07:52:31;;;;;;;18.17;10.18;;;;;;;14.31;45.32;98164.31;4481201;32;33528;-87
2021/12/25 07:54:58;;;;;;;17.73;9.55;;;;;;;14.67;44.65;98175.00;4481790;32;33891;-88
2021/12/25 07:57:26;;;;;;;13.38;8.52;;;;;;;14.77;44.44;98173.91;4480986;32;34149;-88
2021/12/25 07:59:55;;;;;;;15.85;9.18;;;;;;;15.10;43.69;98174.97;4482336;32;33898;-84
2021/12/25 08:02:22;;;;;;;18.73;10.18;;;;;;;15.11;43.64;98173.19;4482626;32;33101;-88
2021/12/25 08:04:50;;;;;;;19.05;12.02;;;;;;;15.44;42.85;98169.84;4481610;32;33866;-88
2021/12/25 08:07:18;;;;;;;14.63;9.13;;;;;;;15.37;42.92;98168.28;4482673;32;34284;-86
2021/12/25 08:09:46;;;;;;;16.15;10.77;;;;;;;15.55;42.70;98165.25;4482722;32;33677;-84
2021/12/25 08:12:13;;;;;;;14.52;9.38;;;;;;;15.51;42.68;98162.75;4482510;32;33508;-88
2021/12/25 08:14:41;;;;;;;14.18;8.70;;;;;;;15.62;42.58;98165.13;4482963;32;33966;-88
2021/12/25 08:17:09;;;;;;;13.98;9.60;;;;;;;15.43;43.10;98173.38;4481978;32;33939;-88
2021/12/25 08:19:42;;;;;;;16.02;10.32;;;;;;;15.38;43.24;98172.63;4482797;32;34468;-84
2021/12/25 08:22:12;;;;;;;14.48;8.77;;;;;;;15.53;43.14;98161.81;4482846;32;33559;-88
2021/12/25 08:24:51;;;;;;;13.82;8.73;;;;;;;15.62;43.13;98175.56;4482405;31;33928;-87
2021/12/25 08:27:26;;;;;;;20.27;8.80;;;;;;;15.82;42.77;98170.75;4478670;32;33974;-87
2021/12/25 08:29:57;;;;;;;12.05;7.78;;;;;;;15.78;43.07;98162.13;4480768;32;34045;-84
2021/12/25 08:32:29;;;;;;;10.93;7.28;;;;;;;15.94;42.86;98164.34;4477830;32;35003;-88
2021/12/25 08:35:00;;;;;;;11.90;7.43;;;;;;;15.98;42.86;98172.06;4481473;32;32513;-86
2021/12/25 08:37:27;;;;;;;11.27;6.82;;;;;;;15.08;45.50;98166.31;4476090;32;34862;-87
2021/12/25 08:39:55;;;;;;;12.48;7.18;;;;;;;15.69;44.26;98156.28;4476918;32;34260;-87
2021/12/25 08:42:23;;;;;;;15.70;8.13;;;;;;;15.48;45.05;98149.75;4482631;32;33617;-86
2021/12/25 08:47:30;;;;;;;35.40;23.67;;;;;;;13.47;49.83;98152.69;4481382;32;34142;-84
2021/12/25 08:49:58;;;;;;;39.78;26.55;;;;;;;13.80;48.92;98140.91;4481222;32;34216;-85
2021/12/25 08:52:25;;;;;;;40.65;24.45;;;;;;;14.06;48.27;98137.84;4480394;32;33264;-84
2021/12/25 08:54:53;;;;;;;31.40;22.80;;;;;;;15.04;45.49;98147.25;4482263;32;33966;-85
2021/12/25 08:57:25;;;;;;;26.45;19.15;;;;;;;15.07;45.66;98141.94;4482466;32;33841;-84
2021/12/25 08:59:54;;;;;;;30.75;20.05;;;;;;;15.16;45.70;98135.69;4481229;32;34764;-85
2021/12/25 09:02:23;;;;;;;30.33;20.80;;;;;;;15.27;45.56;98122.38;4482717;32;33381;-85
2021/12/25 09:04:51;;;;;;;30.10;20.25;;;;;;;15.64;44.93;98131.94;4480943;32;34121;-86
2021/12/25 09:07:20;;;;;;;24.58;18.20;;;;;;;15.84;44.67;98144.59;4478052;32;33836;-85
2021/12/25 09:09:48;;;;;;;27.05;20.77;;;;;;;15.30;46.19;98158.84;4465092;32;34476;-86
2021/12/25 09:12:16;;;;;;;31.05;19.90;;;;;;;15.47;46.33;98156.72;4477387;32;34479;-86
2021/12/25 09:14:44;;;;;;;22.90;10.38;;;;;;;15.93;45.25;98154.81;4481014;32;34007;-86
2021/12/25 09:17:13;;;;;;;14.55;8.50;;;;;;;15.53;45.98;98161.81;4481035;32;34231;-86
2021/12/25 09:19:41;;;;;;;13.75;8.07;;;;;;;14.93;46.71;98154.44;4481332;32;34031;-85
2021/12/25 09:22:10;;;;;;;18.33;9.50;;;;;;;14.68;46.70;98148.87;4480926;32;33999;-84
2021/12/25 09:24:39;;;;;;;13.60;8.13;;;;;;;14.60;47.38;98143.78;4479133;32;33844;-86
2021/12/25 09:27:07;;;;;;;18.55;10.50;;;;;;;15.47;45.45;98142.81;4480705;32;34205;-86
2021/12/25 09:29:35;;;;;;;19.00;9.35;;;;;;;15.72;44.96;98130.03;4482033;32;33804;-86
2021/12/25 09:32:03;;;;;;;16.83;9.20;;;;;;;15.58;45.59;98136.44;4481644;32;33442;-85
2021/12/25 09:34:30;;;;;;;15.70;9.60;;;;;;;15.44;46.34;98133.28;4481816;32;33683;-86
2021/12/25 09:36:58;;;;;;;16.80;11.07;;;;;;;15.97;45.29;98133.78;4468115;32;33678;-86
2021/12/25 09:39:25;;;;;;;14.90;9.70;;;;;;;16.52;44.21;98134.94;4481930;32;34054;-87
2021/12/25 09:41:53;;;;;;;15.95;10.60;;;;;;;16.51;43.63;98127.97;4480782;32;33492;-85
2021/12/25 09:44:20;;;;;;;14.80;10.18;;;;;;;16.45;43.64;98124.69;4481800;32;33861;-85
2021/12/25 09:46:48;;;;;;;20.40;14.48;;;;;;;16.50;43.98;98126.25;4483526;32;35232;-84
2021/12/25 09:49:15;;;;;;;17.58;11.73;;;;;;;16.04;45.13;98124.03;4483932;32;33788;-87
2021/12/25 09:51:43;;;;;;;28.17;21.67;;;;;;;16.38;44.47;98131.81;4482517;32;34325;-88
2021/12/25 09:54:14;;;;;;;26.35;18.52;;;;;;;15.84;45.37;98121.91;4482025;32;34604;-86
2021/12/25 09:56:44;;;;;;;39.17;26.50;;;;;;;16.53;44.28;98120.94;4474258;32;34227;-86
2021/12/25 09:59:12;;;;;;;25.95;19.00;;;;;;;17.02;43.10;98118.69;4478909;32;34829;-85
2021/12/25 10:01:47;;;;;;;26.05;15.95;;;;;;;17.13;42.86;98118.37;4471627;32;33228;-84
2021/12/25 10:04:35;;;;;;;21.05;13.23;;;;;;;17.35;42.55;98121.16;4484035;32;33614;-87
2021/12/25 10:07:21;;;;;;;22.67;12.73;;;;;;;17.36;42.62;98117.66;4483778;32;34036;-88
2021/12/25 10:10:18;;;;;;;26.77;14.15;;;;;;;17.18;42.57;98125.19;4483266;32;34651;-88
2021/12/25 10:12:49;;;;;;;20.12;13.48;;;;;;;17.20;42.69;98118.16;4483751;32;33607;-87
2021/12/25 10:15:20;;;;;;;23.87;14.20;;;;;;;16.82;43.94;98127.16;4483751;32;34550;-87
2021/12/25 10:17:49;;;;;;;22.30;13.15;;;;;;;16.89;43.69;98120.81;4483404;32;35099;-87
2021/12/25 10:20:18;;;;;;;18.27;11.05;;;;;;;16.16;45.41;98123.69;4483772;32;33896;-86
2021/12/25 10:23:13;;;;;;;10.13;5.72;;;;;;;16.21;45.72;98118.34;4482328;32;33678;-88
2021/12/25 10:25:55;;;;;;;10.18;6.25;;;;;;;14.93;48.75;98124.88;4483771;32;34063;-88
2021/12/25 10:28:35;;;;;;;10.55;5.35;;;;;;;15.61;47.42;98118.97;4482969;32;34425;-88
2021/12/25 10:31:13;;;;;;;9.82;5.15;;;;;;;16.50;45.29;98126.25;4483770;32;34416;-89
2021/12/25 10:33:51;;;;;;;12.35;7.80;;;;;;;15.96;47.13;98119.00;4483699;32;33442;-88
2021/12/25 10:36:33;;;;;;;9.13;4.10;;;;;;;16.23;46.74;98125.25;4483514;32;34677;-87
2021/12/25 10:39:06;;;;;;;11.82;6.07;;;;;;;16.45;44.94;98122.91;4481317;32;35092;-87
2021/12/25 10:41:38;;;;;;;7.35;3.58;;;;;;;15.50;48.30;98114.88;4483553;32;33897;-89
2021/12/25 10:44:15;;;;;;;6.15;3.20;;;;;;;16.18;46.14;98103.59;4482523;32;34210;-87
2021/12/25 10:46:47;;;;;;;8.18;3.00;;;;;;;16.20;45.79;98106.16;4480217;32;34084;-86
2021/12/25 10:49:16;;;;;;;7.57;3.12;;;;;;;16.65;44.49;98097.94;4466618;32;34234;-87
2021/12/25 10:51:44;;;;;;;7.93;3.37;;;;;;;16.09;46.54;98097.75;4470818;32;33737;-85
2021/12/25 10:54:14;;;;;;;5.25;2.85;;;;;;;16.30;45.83;98110.25;4477457;32;33338;-85
2021/12/25 10:56:43;;;;;;;5.18;2.65;;;;;;;14.93;48.74;98104.00;4482654;31;33871;-87
2021/12/25 10:59:17;;;;;;;4.90;2.70;;;;;;;16.28;45.54;98104.19;4482114;32;33997;-88
2021/12/25 11:01:50;;;;;;;6.97;3.22;;;;;;;15.48;47.42;98100.97;4482039;32;34025;-85
2021/12/25 11:04:29;;;;;;;5.70;2.70;;;;;;;16.13;45.99;98088.91;4483027;32;34265;-86
2021/12/25 11:06:57;;;;;;;5.93;2.53;;;;;;;16.43;44.93;98088.06;4482881;32;33938;-87
2021/12/25 11:09:25;;;;;;;4.80;2.50;;;;;;;16.84;44.34;98082.59;4483021;32;35880;-85
2021/12/25 11:12:16;;;;;;;4.30;2.50;;;;;;;16.29;44.55;98083.25;4483106;32;34508;-88
2021/12/25 11:14:45;;;;;;;5.80;2.92;;;;;;;16.59;45.11;98082.41;4482571;32;33169;-88
2021/12/25 11:17:25;;;;;;;10.48;5.22;;;;;;;16.74;44.16;98074.16;4483422;32;34118;-88
2021/12/25 11:20:01;;;;;;;18.25;9.00;;;;;;;17.46;42.77;98070.19;4483160;32;34429;-87
2021/12/25 11:22:51;;;;;;;13.25;7.40;;;;;;;17.92;41.88;98070.44;4482121;32;34525;-85
2021/12/25 11:25:21;;;;;;;17.15;8.80;;;;;;;17.46;42.94;98057.06;4481822;32;33411;-89
2021/12/25 11:27:49;;;;;;;14.93;8.50;;;;;;;17.46;43.07;98057.06;4481993;32;33520;-86
2021/12/25 11:30:20;;;;;;;13.90;8.13;;;;;;;17.61;42.62;98049.59;4481730;32;33980;-86
2021/12/25 11:32:49;;;;;;;12.60;7.53;;;;;;;17.64;42.88;98045.09;4483463;32;34362;-85
2021/12/25 11:35:18;;;;;;;14.60;8.52;;;;;;;16.94;44.22;98047.38;4482856;32;33631;-85
2021/12/25 11:37:48;;;;;;;11.75;6.90;;;;;;;16.89;44.56;98044.88;4481999;32;34281;-85
2021/12/25 11:40:17;;;;;;;12.00;6.82;;;;;;;16.88;44.78;98042.34;4483121;32;34998;-87
2021/12/25 11:42:47;;;;;;;10.27;6.37;;;;;;;17.19;44.04;98031.75;4482316;32;33981;-85
2021/12/25 11:45:18;;;;;;;11.82;7.10;;;;;;;16.98;44.34;98028.06;4482850;32;33703;-89
2021/12/25 11:47:51;;;;;;;10.48;5.87;;;;;;;17.12;44.02;98025.88;4482370;31;34086;-88
2021/12/25 11:50:38;;;;;;;9.55;5.70;;;;;;;17.24;43.95;98024.63;4482830;32;34911;-87
2021/12/25 11:58:50;;;;;;;10.07;5.35;;;;;;;17.24;43.25;98020.22;4482315;32;34701;-87
2021/12/25 12:01:43;;;;;;;9.93;5.28;;;;;;;17.70;42.25;98017.84;4481682;32;34544;-84
2021/12/25 12:04:11;;;;;;;9.38;4.87;;;;;;;17.61;42.86;98010.28;4482010;32;33796;-86
2021/12/25 12:06:48;;;;;;;7.95;3.87;;;;;;;17.70;42.76;98010.84;4483085;32;33363;-87
2021/12/25 12:09:16;;;;;;;9.00;4.32;;;;;;;17.67;43.03;98016.16;4481860;32;34746;-84
2021/12/25 12:12:02;;;;;;;7.25;4.07;;;;;;;18.08;42.25;98018.31;4483013;32;34200;-84
2021/12/25 12:14:32;;;;;;;6.90;3.78;;;;;;;18.25;41.95;98010.66;4473568;32;34518;-84
2021/12/25 12:17:04;;;;;;;8.10;3.85;;;;;;;18.45;41.65;98021.28;4482293;32;33530;-81
2021/12/25 12:19:38;;;;;;;7.43;4.65;;;;;;;18.40;41.62;98015.34;4482623;32;33883;-88
2021/12/25 12:22:20;;;;;;;11.18;5.75;;;;;;;18.00;42.24;98021.19;4482931;32;34710;-85
2021/12/25 12:27:50;;;;;;;5.45;2.90;;;;;;;18.38;41.16;98017.19;4471219;32;34430;-85
2021/12/25 12:30:30;;;;;;;9.93;3.72;;;;;;;17.82;42.42;98016.59;4467080;32;33825;-84
2021/12/25 12:33:02;;;;;;;8.25;3.87;;;;;;;18.32;40.96;98017.41;4481928;32;35083;-84
2021/12/25 12:35:51;;;;;;;7.68;3.40;;;;;;;17.65;42.17;98028.50;4481538;32;34438;-83
2021/12/25 12:41:30;;;;;;;5.55;2.92;;;;;;;17.44;43.67;98010.84;4482332;32;34641;-85
2021/12/25 12:43:58;;;;;;;8.32;4.30;;;;;;;17.83;40.75;98013.06;4466698;32;34936;-85
2021/12/25 12:46:50;;;;;;;11.32;5.65;;;;;;;17.91;40.40;98014.50;4466755;32;34156;-83
2021/12/25 12:49:19;;;;;;;9.15;4.05;;;;;;;17.60;41.94;98012.03;4466914;32;33381;-87
2021/12/25 12:51:49;;;;;;;6.57;3.10;;;;;;;16.67;43.50;98018.50;4474687;32;33941;-83
2021/12/25 12:54:42;;;;;;;6.45;3.22;;;;;;;17.95;40.77;98017.84;4482227;32;34178;-84
2021/12/25 12:57:16;;;;;;;8.27;3.62;;;;;;;17.87;41.24;98019.91;4465635;32;33712;-85
2021/12/25 12:59:45;;;;;;;5.40;2.62;;;;;;;17.86;41.36;98008.56;4475155;32;32755;-85
2021/12/25 13:02:14;;;;;;;5.82;2.80;;;;;;;18.03;41.23;98014.97;4481043;32;34000;-84
2021/12/25 13:04:56;;;;;;;5.85;2.60;;;;;;;17.99;42.02;98014.22;4482405;32;33787;-84
2021/12/25 13:07:25;;;;;;;5.90;2.97;;;;;;;18.39;40.42;98012.78;4468417;32;33431;-87
2021/12/25 13:10:10;;;;;;;6.40;3.00;;;;;;;18.50;40.84;98020.25;4481432;32;33477;-86